createdAt,value
2024-03-26T00:00:49.469Z,68.9480
2024-03-26T00:01:52.273Z,69.0700
2024-03-26T00:02:55.032Z,69.0897
2024-03-26T00:03:57.708Z,69.3238
2024-03-26T00:05:00.398Z,69.2817
2024-03-26T00:06:03.123Z,68.8563
2024-03-26T00:07:05.869Z,69.1200
2024-03-26T00:08:08.534Z,68.3673
2024-03-26T00:09:11.257Z,68.8938
2024-03-26T00:10:14.013Z,68.4065
2024-03-26T00:11:16.736Z,68.6693
2024-03-26T00:12:19.524Z,68.9372
2024-03-26T00:13:22.184Z,69.4052
2024-03-26T00:14:24.953Z,68.7745
2024-03-26T00:15:27.618Z,69.0457
2024-03-26T00:16:30.335Z,69.1059
2024-03-26T00:17:33.017Z,69.3388
2024-03-26T00:18:35.763Z,69.2922
2024-03-26T00:19:38.506Z,69.0705
2024-03-26T00:20:41.184Z,69.0334
2024-03-26T00:21:43.962Z,69.2714
2024-03-26T00:22:46.659Z,69.7564
2024-03-26T00:23:49.346Z,70.2083
2024-03-26T00:24:52.026Z,70.2567
2024-03-26T00:25:54.747Z,69.1286
2024-03-26T00:26:57.562Z,69.0006
2024-03-26T00:28:00.280Z,69.2079
2024-03-26T00:29:02.942Z,69.3574
2024-03-26T00:30:05.702Z,69.1583
2024-03-26T00:31:08.435Z,69.5359
2024-03-26T00:32:11.477Z,70.0745
2024-03-26T00:33:14.223Z,69.7168
2024-03-26T00:34:16.889Z,69.5851
2024-03-26T00:35:19.627Z,69.9869
2024-03-26T00:36:22.457Z,69.9329
2024-03-26T00:37:25.150Z,69.9349
2024-03-26T00:38:27.893Z,70.0520
2024-03-26T00:39:30.629Z,70.4608
2024-03-26T00:40:33.312Z,69.9995
2024-03-26T00:41:36.004Z,69.6657
2024-03-26T00:42:38.651Z,69.8340
2024-03-26T00:43:41.388Z,69.8648
2024-03-26T00:44:44.097Z,69.6251
2024-03-26T00:45:46.820Z,69.4590
2024-03-26T00:46:49.503Z,69.9673
2024-03-26T00:47:52.264Z,70.1957
2024-03-26T00:48:54.941Z,70.1517
2024-03-26T00:49:57.698Z,70.3572
2024-03-26T00:51:00.417Z,70.3671
2024-03-26T00:52:03.177Z,70.4089
2024-03-26T00:53:05.867Z,70.9593
2024-03-26T00:54:08.576Z,71.4784
2024-03-26T00:55:11.242Z,72.2028
2024-03-26T00:56:14.017Z,71.7299
2024-03-26T00:57:16.720Z,71.3621
2024-03-26T00:58:19.458Z,71.4329
2024-03-26T00:59:22.161Z,71.2180
2024-03-26T01:00:24.840Z,70.2889
2024-03-26T01:01:27.531Z,70.2295
2024-03-26T01:02:30.385Z,70.5464
2024-03-26T01:03:33.051Z,71.1134
2024-03-26T01:04:35.776Z,71.4453
2024-03-26T01:05:38.445Z,71.6063
2024-03-26T01:06:41.217Z,71.8182
2024-03-26T01:07:43.906Z,72.0924
2024-03-26T01:08:46.589Z,72.1292
2024-03-26T01:09:49.304Z,72.1436
2024-03-26T01:10:52.176Z,71.5665
2024-03-26T01:11:54.871Z,72.0970
2024-03-26T01:12:57.590Z,72.4423
2024-03-26T01:14:00.252Z,72.6575
2024-03-26T01:15:03.014Z,72.4730
2024-03-26T01:16:05.702Z,72.8760
2024-03-26T01:17:08.445Z,72.5852
2024-03-26T01:18:11.078Z,72.0872
2024-03-26T01:19:13.916Z,72.8449
2024-03-26T01:20:16.891Z,72.8078
2024-03-26T01:21:22.866Z,72.9871
2024-03-26T01:22:22.784Z,72.2223
2024-03-26T01:23:25.440Z,72.4948
2024-03-26T01:24:28.185Z,72.8148
2024-03-26T01:25:31.077Z,72.4952
2024-03-26T01:26:33.858Z,71.9502
2024-03-26T01:27:36.586Z,71.9131
2024-03-26T01:28:39.300Z,71.2890
2024-03-26T01:29:41.969Z,71.5130
2024-03-26T01:30:44.721Z,71.2929
2024-03-26T01:31:47.466Z,71.2926
2024-03-26T01:32:50.217Z,71.0251
2024-03-26T01:33:52.905Z,72.2059
2024-03-26T01:34:55.918Z,72.0894
2024-03-26T01:35:58.670Z,71.7549
2024-03-26T01:37:01.383Z,71.2242
2024-03-26T01:38:04.019Z,71.8191
2024-03-26T01:39:06.794Z,71.8676
2024-03-26T01:40:09.544Z,71.9940
2024-03-26T01:41:12.246Z,72.3300
2024-03-26T01:42:14.984Z,72.5277
2024-03-26T01:43:17.668Z,72.1703
2024-03-26T01:44:20.430Z,72.3627
2024-03-26T01:45:23.137Z,72.6796
2024-03-26T01:46:25.857Z,72.9549
2024-03-26T01:47:28.535Z,72.0256
2024-03-26T01:48:31.309Z,72.2337
2024-03-26T01:49:34.017Z,72.2210
2024-03-26T01:50:36.789Z,72.2417
2024-03-26T01:51:39.522Z,72.5842
2024-03-26T01:52:42.197Z,72.9742
2024-03-26T01:53:44.963Z,72.9945
2024-03-26T01:54:47.698Z,72.6769
2024-03-26T01:55:50.365Z,72.8114
2024-03-26T01:56:53.063Z,73.1614
2024-03-26T01:57:55.732Z,73.3767
2024-03-26T01:58:58.429Z,73.2829
2024-03-26T02:00:01.145Z,73.2404
2024-03-26T02:01:03.941Z,73.3614
2024-03-26T02:02:06.651Z,73.6733
2024-03-26T02:03:09.318Z,73.7766
2024-03-26T02:04:12.102Z,74.2080
2024-03-26T02:05:14.822Z,73.2902
2024-03-26T02:06:17.533Z,73.0191
2024-03-26T02:07:20.219Z,73.5574
2024-03-26T02:08:22.988Z,74.3659
2024-03-26T02:09:25.699Z,74.2876
2024-03-26T02:10:28.410Z,73.9580
2024-03-26T02:11:31.143Z,74.4274
2024-03-26T02:12:33.873Z,74.8245
2024-03-26T02:13:36.607Z,74.3673
2024-03-26T02:14:39.346Z,74.1161
2024-03-26T02:15:42.078Z,73.7421
2024-03-26T02:16:44.802Z,73.7904
2024-03-26T02:17:47.566Z,73.9959
2024-03-26T02:18:50.224Z,73.5601
2024-03-26T02:19:52.960Z,73.2871
2024-03-26T02:20:55.732Z,72.5912
2024-03-26T02:21:58.478Z,72.6939
2024-03-26T02:23:01.188Z,72.7640
2024-03-26T02:24:04.134Z,73.4546
2024-03-26T02:25:06.820Z,73.1901
2024-03-26T02:26:09.558Z,72.6597
2024-03-26T02:27:12.255Z,72.6641
2024-03-26T02:28:14.970Z,72.9322
2024-03-26T02:29:17.742Z,73.1033
2024-03-26T02:30:20.427Z,72.9513
2024-03-26T02:31:23.138Z,73.2154
2024-03-26T02:32:25.962Z,73.4192
2024-03-26T02:33:28.655Z,73.2133
2024-03-26T02:34:31.405Z,73.1000
2024-03-26T02:35:34.131Z,72.7474
2024-03-26T02:36:36.854Z,72.1371
2024-03-26T02:37:39.581Z,72.4985
2024-03-26T02:38:42.358Z,72.8233
2024-03-26T02:39:45.160Z,72.3273
2024-03-26T02:40:47.939Z,71.9963
2024-03-26T02:41:50.717Z,71.8130
2024-03-26T02:42:53.448Z,72.1066
2024-03-26T02:43:56.228Z,72.3902
2024-03-26T02:44:58.963Z,72.5840
2024-03-26T02:46:01.852Z,72.4467
2024-03-26T02:47:04.586Z,72.1112
2024-03-26T02:48:07.324Z,72.6377
2024-03-26T02:49:10.011Z,72.8011
2024-03-26T02:50:12.742Z,73.0531
2024-03-26T02:51:15.458Z,72.9669
2024-03-26T02:52:18.173Z,72.4595
2024-03-26T02:53:20.958Z,72.3659
2024-03-26T02:54:23.675Z,72.7726
2024-03-26T02:55:26.569Z,72.9809
2024-03-26T02:56:29.372Z,71.9205
2024-03-26T02:57:32.113Z,71.8940
2024-03-26T02:58:34.850Z,72.8340
2024-03-26T02:59:37.668Z,73.6046
2024-03-26T03:00:40.556Z,72.7957
2024-03-26T03:01:43.297Z,73.2095
2024-03-26T03:02:47.255Z,73.2909
2024-03-26T03:03:47.137Z,73.2396
2024-03-26T03:04:49.977Z,73.2739
2024-03-26T03:05:52.719Z,73.4379
2024-03-26T03:06:55.425Z,72.5256
2024-03-26T03:07:58.154Z,72.0201
2024-03-26T03:09:00.937Z,71.9905
2024-03-26T03:10:03.751Z,71.6228
2024-03-26T03:11:06.482Z,71.7651
2024-03-26T03:12:09.217Z,72.1091
2024-03-26T03:13:11.996Z,71.9710
2024-03-26T03:14:14.777Z,72.1906
2024-03-26T03:15:17.515Z,72.3599
2024-03-26T03:16:20.244Z,71.9878
2024-03-26T03:17:23.041Z,71.8786
2024-03-26T03:18:25.854Z,72.0168
2024-03-26T03:19:28.578Z,71.8621
2024-03-26T03:20:31.321Z,72.1922
2024-03-26T03:21:34.068Z,72.3590
2024-03-26T03:22:36.840Z,72.7166
2024-03-26T03:23:39.773Z,72.1368
2024-03-26T03:24:42.497Z,72.1670
2024-03-26T03:25:45.262Z,72.5230
2024-03-26T03:26:48.011Z,72.3756
2024-03-26T03:27:50.724Z,72.5049
2024-03-26T03:28:53.437Z,72.9741
2024-03-26T03:29:56.177Z,73.3136
2024-03-26T03:30:58.968Z,73.3206
2024-03-26T03:32:01.696Z,73.4755
2024-03-26T03:33:04.580Z,73.7815
2024-03-26T03:34:07.285Z,73.8638
2024-03-26T03:35:10.040Z,73.6467
2024-03-26T03:36:12.722Z,73.6913
2024-03-26T03:37:15.464Z,73.5056
2024-03-26T03:38:18.165Z,73.4251
2024-03-26T03:39:20.899Z,73.2108
2024-03-26T03:40:23.603Z,72.9251
2024-03-26T03:41:26.340Z,72.2772
2024-03-26T03:42:29.045Z,72.3544
2024-03-26T03:43:31.778Z,72.8578
2024-03-26T03:44:34.495Z,72.6976
2024-03-26T03:45:37.479Z,72.8032
2024-03-26T03:46:40.245Z,73.1885
2024-03-26T03:47:42.988Z,73.8605
2024-03-26T03:48:45.680Z,73.1896
2024-03-26T03:49:48.393Z,72.8457
2024-03-26T03:50:51.242Z,72.2962
2024-03-26T03:51:53.962Z,72.6235
2024-03-26T03:52:56.692Z,72.7222
2024-03-26T03:53:59.420Z,72.2443
2024-03-26T03:55:02.338Z,71.8297
2024-03-26T03:56:05.057Z,71.9420
2024-03-26T03:57:07.785Z,72.6473
2024-03-26T03:58:10.831Z,73.2263
2024-03-26T03:59:13.531Z,73.5349
2024-03-26T04:00:16.272Z,73.7855
2024-03-26T04:01:18.968Z,74.1488
2024-03-26T04:02:21.693Z,73.4867
2024-03-26T04:03:24.460Z,73.4138
2024-03-26T04:04:27.228Z,72.8010
2024-03-26T04:05:29.955Z,73.1152
2024-03-26T04:06:32.731Z,72.6412
2024-03-26T04:07:35.620Z,73.3150
2024-03-26T04:08:38.336Z,72.5451
2024-03-26T04:09:41.048Z,72.8428
2024-03-26T04:10:43.767Z,72.9012
2024-03-26T04:11:46.485Z,73.4205
2024-03-26T04:12:49.299Z,74.1064
2024-03-26T04:13:52.014Z,73.8766
2024-03-26T04:14:54.749Z,74.3100
2024-03-26T04:15:57.696Z,73.6280
2024-03-26T04:17:00.426Z,73.4370
2024-03-26T04:18:03.207Z,72.9855
2024-03-26T04:19:05.977Z,73.1288
2024-03-26T04:20:08.717Z,72.6818
2024-03-26T04:21:11.402Z,72.7292
2024-03-26T04:22:14.140Z,73.1344
2024-03-26T04:23:16.912Z,73.1798
2024-03-26T04:24:19.776Z,73.4134
2024-03-26T04:25:22.593Z,73.7783
2024-03-26T04:26:25.322Z,73.7580
2024-03-26T04:27:28.060Z,74.0692
2024-03-26T04:28:30.808Z,74.6668
2024-03-26T04:29:33.548Z,75.0171
2024-03-26T04:30:36.395Z,74.9311
2024-03-26T04:31:39.142Z,75.0082
2024-03-26T04:32:41.860Z,74.5860
2024-03-26T04:33:44.591Z,74.5408
2024-03-26T04:34:47.271Z,74.3963
2024-03-26T04:35:50.038Z,74.3801
2024-03-26T04:36:52.723Z,74.2268
2024-03-26T04:37:55.457Z,74.3823
2024-03-26T04:38:58.484Z,74.9245
2024-03-26T04:40:01.253Z,75.0663
2024-03-26T04:41:04.007Z,75.1098
2024-03-26T04:42:06.748Z,75.2195
2024-03-26T04:43:09.455Z,75.2389
2024-03-26T04:44:12.207Z,75.1691
2024-03-26T04:45:14.944Z,75.3290
2024-03-26T04:46:17.667Z,75.5634
2024-03-26T04:47:20.605Z,75.6670
2024-03-26T04:48:23.379Z,75.4383
2024-03-26T04:49:26.086Z,75.1894
2024-03-26T04:50:28.887Z,75.4788
2024-03-26T04:51:31.774Z,76.0070
2024-03-26T04:52:34.520Z,76.0046
2024-03-26T04:53:37.342Z,76.1028
2024-03-26T04:54:40.251Z,75.9984
2024-03-26T04:55:42.964Z,76.5048
2024-03-26T04:56:45.684Z,76.5472
2024-03-26T04:57:48.412Z,76.7831
2024-03-26T04:58:51.151Z,77.0089
2024-03-26T04:59:53.860Z,77.5347
2024-03-26T05:00:56.577Z,77.3604
2024-03-26T05:01:59.376Z,76.4501
2024-03-26T05:03:02.135Z,75.9282
2024-03-26T05:04:04.876Z,76.1289
2024-03-26T05:05:07.618Z,76.4140
2024-03-26T05:06:10.430Z,76.6914
2024-03-26T05:07:13.154Z,76.6812
2024-03-26T05:08:15.946Z,76.7723
2024-03-26T05:09:18.649Z,76.8076
2024-03-26T05:10:21.397Z,77.1789
2024-03-26T05:11:24.154Z,77.4612
2024-03-26T05:12:27.220Z,77.1085
2024-03-26T05:13:29.925Z,77.0545
2024-03-26T05:14:32.890Z,76.9351
2024-03-26T05:15:35.612Z,76.9342
2024-03-26T05:16:38.379Z,76.2541
2024-03-26T05:17:41.118Z,76.3817
2024-03-26T05:18:43.852Z,76.8627
2024-03-26T05:19:46.584Z,76.9223
2024-03-26T05:20:49.348Z,76.2399
2024-03-26T05:21:52.196Z,76.2776
2024-03-26T05:22:55.009Z,76.3530
2024-03-26T05:23:57.755Z,76.5715
2024-03-26T05:25:00.503Z,76.5552
2024-03-26T05:26:03.456Z,76.3117
2024-03-26T05:27:06.239Z,76.0945
2024-03-26T05:28:08.967Z,76.4703
2024-03-26T05:29:11.776Z,77.1379
2024-03-26T05:30:14.478Z,76.6431
2024-03-26T05:31:17.159Z,75.8824
2024-03-26T05:32:19.845Z,75.9075
2024-03-26T05:33:22.556Z,76.0503
2024-03-26T05:34:25.344Z,76.0392
2024-03-26T05:35:28.271Z,76.2237
2024-03-26T05:36:30.971Z,76.4257
2024-03-26T05:37:33.669Z,76.8651
2024-03-26T05:38:36.442Z,76.4953
2024-03-26T05:39:39.085Z,76.1970
2024-03-26T05:40:41.860Z,76.1291
2024-03-26T05:41:44.536Z,76.1971
2024-03-26T05:42:47.291Z,76.5283
2024-03-26T05:43:50.028Z,76.9959
2024-03-26T05:44:52.793Z,77.0348
2024-03-26T05:45:55.436Z,77.0498
2024-03-26T05:46:58.177Z,77.4411
2024-03-26T05:48:00.900Z,77.2652
2024-03-26T05:49:03.622Z,76.9085
2024-03-26T05:50:06.303Z,76.5242
2024-03-26T05:51:09.037Z,76.1318
2024-03-26T05:52:11.778Z,76.2777
2024-03-26T05:53:14.500Z,76.5313
2024-03-26T05:54:17.186Z,76.2087
2024-03-26T05:55:19.937Z,75.9373
2024-03-26T05:56:22.993Z,75.2691
2024-03-26T05:57:25.694Z,75.4480
2024-03-26T05:58:28.422Z,74.9264
2024-03-26T05:59:31.124Z,74.9191
2024-03-26T06:00:33.891Z,75.5422
2024-03-26T06:01:36.587Z,75.8708
2024-03-26T06:02:39.359Z,75.4265
2024-03-26T06:03:42.054Z,75.6046
2024-03-26T06:04:44.739Z,75.4263
2024-03-26T06:05:47.570Z,75.3918
2024-03-26T06:06:50.254Z,75.5445
2024-03-26T06:07:52.916Z,75.3829
2024-03-26T06:08:55.690Z,75.5761
2024-03-26T06:09:58.347Z,75.4057
2024-03-26T06:11:01.058Z,75.3778
2024-03-26T06:12:03.741Z,75.3954
2024-03-26T06:13:07.785Z,75.5072
2024-03-26T06:14:07.084Z,74.8842
2024-03-26T06:15:09.786Z,75.2729
2024-03-26T06:16:12.474Z,75.6875
2024-03-26T06:17:15.146Z,75.3952
2024-03-26T06:18:17.809Z,75.0531
2024-03-26T06:19:20.585Z,74.5184
2024-03-26T06:20:23.250Z,74.0050
2024-03-26T06:21:25.997Z,74.0542
2024-03-26T06:22:28.762Z,73.7998
2024-03-26T06:23:31.528Z,73.5621
2024-03-26T06:24:34.173Z,73.0962
2024-03-26T06:25:36.869Z,73.1171
2024-03-26T06:26:39.613Z,72.9363
2024-03-26T06:27:42.288Z,73.0850
2024-03-26T06:28:45.056Z,73.1982
2024-03-26T06:29:47.782Z,72.7516
2024-03-26T06:30:50.491Z,72.5879
2024-03-26T06:31:53.234Z,73.0677
2024-03-26T06:32:55.987Z,72.5963
2024-03-26T06:33:58.678Z,72.7326
2024-03-26T06:35:01.373Z,72.4533
2024-03-26T06:36:04.100Z,72.5351
2024-03-26T06:37:06.805Z,72.0862
2024-03-26T06:38:09.880Z,71.4248
2024-03-26T06:39:12.625Z,72.1475
2024-03-26T06:40:15.319Z,73.0154
2024-03-26T06:41:17.996Z,71.6280
2024-03-26T06:42:20.746Z,71.6191
2024-03-26T06:43:23.459Z,72.1041
2024-03-26T06:44:26.231Z,72.2038
2024-03-26T06:45:29.223Z,71.9275
2024-03-26T06:46:31.918Z,71.1075
2024-03-26T06:47:34.650Z,71.3794
2024-03-26T06:48:37.387Z,71.3412
2024-03-26T06:49:40.147Z,71.3319
2024-03-26T06:50:42.836Z,71.0787
2024-03-26T06:51:46.135Z,71.0102
2024-03-26T06:52:48.926Z,70.2490
2024-03-26T06:53:51.608Z,69.7424
2024-03-26T06:54:54.352Z,69.8121
2024-03-26T06:55:57.076Z,69.6608
2024-03-26T06:56:59.780Z,70.0131
2024-03-26T06:58:02.558Z,69.3010
2024-03-26T06:59:05.212Z,69.5249
2024-03-26T07:00:07.922Z,70.4033
2024-03-26T07:01:10.591Z,69.2220
2024-03-26T07:02:13.390Z,69.0564
2024-03-26T07:03:16.142Z,68.9338
2024-03-26T07:04:18.817Z,68.8645
2024-03-26T07:05:21.536Z,68.9875
2024-03-26T07:06:24.256Z,69.0615
2024-03-26T07:07:26.993Z,68.9372
2024-03-26T07:08:29.687Z,69.2119
2024-03-26T07:09:32.362Z,69.2065
2024-03-26T07:10:35.134Z,69.1945
2024-03-26T07:11:37.868Z,69.1817
2024-03-26T07:12:40.557Z,68.7409
2024-03-26T07:13:43.232Z,69.0655
2024-03-26T07:14:46.036Z,69.6030
2024-03-26T07:15:48.820Z,69.4263
2024-03-26T07:16:51.478Z,69.4206
2024-03-26T07:17:54.209Z,69.5267
2024-03-26T07:18:56.873Z,69.8643
2024-03-26T07:19:59.631Z,69.7486
2024-03-26T07:21:02.340Z,69.5104
2024-03-26T07:22:05.115Z,69.4324
2024-03-26T07:23:07.754Z,70.0683
2024-03-26T07:24:10.503Z,70.1887
2024-03-26T07:25:13.241Z,70.1870
2024-03-26T07:26:15.960Z,70.0548
2024-03-26T07:27:18.663Z,70.0763
2024-03-26T07:28:21.374Z,70.4096
2024-03-26T07:29:24.099Z,70.0728
2024-03-26T07:30:26.844Z,69.7894
2024-03-26T07:31:29.511Z,69.5511
2024-03-26T07:32:32.223Z,69.8050
2024-03-26T07:33:34.985Z,69.7855
2024-03-26T07:34:37.723Z,69.4044
2024-03-26T07:35:40.443Z,69.3149
2024-03-26T07:36:43.162Z,68.9237
2024-03-26T07:37:45.859Z,68.5423
2024-03-26T07:38:48.591Z,68.1342
2024-03-26T07:39:51.277Z,68.4274
2024-03-26T07:40:53.998Z,68.2761
2024-03-26T07:41:56.743Z,68.2811
2024-03-26T07:43:01.417Z,66.9808
2024-03-26T07:43:59.419Z,66.9365
2024-03-26T07:45:02.536Z,67.1280
2024-03-26T07:46:05.208Z,66.8489
2024-03-26T07:47:08.098Z,65.2045
2024-03-26T07:48:10.857Z,64.8715
2024-03-26T07:49:13.561Z,64.8883
2024-03-26T07:50:16.302Z,64.6546
2024-03-26T07:51:19.646Z,65.0386
2024-03-26T07:52:19.545Z,64.3723
2024-03-26T07:53:22.333Z,64.1244
2024-03-26T07:54:24.947Z,65.3499
2024-03-26T07:55:27.688Z,64.2263
2024-03-26T07:56:30.389Z,63.5624
2024-03-26T07:57:33.115Z,62.5769
2024-03-26T07:58:35.786Z,62.6302
2024-03-26T07:59:38.533Z,62.4983
2024-03-26T08:00:41.323Z,62.0339
2024-03-26T08:01:44.263Z,61.9261
2024-03-26T08:02:46.948Z,62.3843
2024-03-26T08:03:49.712Z,63.1420
2024-03-26T08:04:52.414Z,63.1226
2024-03-26T08:05:55.220Z,62.2874
2024-03-26T08:06:57.941Z,62.0161
2024-03-26T08:08:00.878Z,61.1710
2024-03-26T08:09:03.612Z,61.5534
2024-03-26T08:10:06.399Z,62.2685
2024-03-26T08:11:09.381Z,62.1588
2024-03-26T08:12:12.050Z,62.4981
2024-03-26T08:13:14.823Z,62.9278
2024-03-26T08:14:17.581Z,62.2633
2024-03-26T08:15:20.303Z,61.7354
2024-03-26T08:16:23.032Z,61.3971
2024-03-26T08:17:25.735Z,61.2787
2024-03-26T08:18:28.493Z,61.2449
2024-03-26T08:19:31.630Z,60.7941
2024-03-26T08:20:31.383Z,61.2756
2024-03-26T08:21:34.079Z,60.7268
2024-03-26T08:22:36.761Z,59.8865
2024-03-26T08:23:39.480Z,58.7671
2024-03-26T08:24:42.240Z,59.3476
2024-03-26T08:25:44.940Z,58.3270
2024-03-26T08:26:47.636Z,58.5465
2024-03-26T08:27:50.341Z,58.6978
2024-03-26T08:28:53.069Z,57.8825
2024-03-26T08:29:55.777Z,57.8806
2024-03-26T08:30:58.519Z,58.1263
2024-03-26T08:32:01.218Z,58.5521
2024-03-26T08:33:04.408Z,58.0236
2024-03-26T08:34:07.142Z,56.6684
2024-03-26T08:35:09.859Z,57.1134
2024-03-26T08:36:13.017Z,57.5525
2024-03-26T08:37:12.670Z,56.6261
2024-03-26T08:38:15.355Z,56.7236
2024-03-26T08:39:18.055Z,57.2648
2024-03-26T08:40:20.941Z,56.1199
2024-03-26T08:41:23.793Z,55.5862
2024-03-26T08:42:26.519Z,56.2770
2024-03-26T08:43:29.285Z,56.4561
2024-03-26T08:44:32.351Z,57.9572
2024-03-26T08:45:35.019Z,57.8059
2024-03-26T08:46:37.706Z,57.4111
2024-03-26T08:47:40.428Z,57.4604
2024-03-26T08:48:43.152Z,57.3578
2024-03-26T08:49:45.860Z,56.9493
2024-03-26T08:50:48.606Z,56.6637
2024-03-26T08:51:52.202Z,57.2812
2024-03-26T08:52:51.571Z,58.3599
2024-03-26T08:53:54.279Z,58.7560
2024-03-26T08:54:56.979Z,58.8223
2024-03-26T08:56:08.565Z,58.3949
2024-03-26T08:57:01.407Z,57.7385
2024-03-26T08:58:04.058Z,57.5566
2024-03-26T08:59:06.806Z,57.0212
2024-03-26T09:00:09.557Z,57.0804
2024-03-26T09:01:12.279Z,58.5868
2024-03-26T09:02:14.992Z,57.0632
2024-03-26T09:03:17.772Z,56.5020
2024-03-26T09:04:21.934Z,56.8335
2024-03-26T09:05:22.608Z,57.0600
2024-03-26T09:06:25.299Z,57.4045
2024-03-26T09:07:28.206Z,56.2832
2024-03-26T09:08:31.000Z,57.1772
2024-03-26T09:09:33.696Z,56.4524
2024-03-26T09:10:36.431Z,56.9667
2024-03-26T09:11:39.146Z,56.0910
2024-03-26T09:12:41.865Z,55.7101
2024-03-26T09:13:45.019Z,54.8033
2024-03-26T09:14:47.692Z,55.1283
2024-03-26T09:15:50.482Z,56.3621
2024-03-26T09:16:53.192Z,55.1759
2024-03-26T09:17:55.922Z,54.8176
2024-03-26T09:19:01.701Z,55.3670
2024-03-26T09:20:01.641Z,53.0409
2024-03-26T09:21:04.366Z,54.8475
2024-03-26T09:22:07.316Z,54.9696
2024-03-26T09:23:10.026Z,54.5446
2024-03-26T09:24:12.719Z,55.4939
2024-03-26T09:25:15.460Z,54.5440
2024-03-26T09:26:18.195Z,55.3054
2024-03-26T09:27:20.922Z,54.3659
2024-03-26T09:28:23.692Z,54.1858
2024-03-26T09:29:26.365Z,53.2085
2024-03-26T09:30:29.377Z,52.4984
2024-03-26T09:31:32.141Z,51.6386
2024-03-26T09:32:34.830Z,52.1062
2024-03-26T09:33:37.597Z,53.0427
2024-03-26T09:34:40.332Z,55.0609
2024-03-26T09:35:43.308Z,54.7781
2024-03-26T09:36:46.158Z,53.5375
2024-03-26T09:37:49.941Z,53.0970
2024-03-26T09:38:51.048Z,52.8430
2024-03-26T09:39:51.748Z,53.2915
2024-03-26T09:40:54.555Z,53.4228
2024-03-26T09:41:57.439Z,53.5749
2024-03-26T09:43:00.167Z,53.3278
2024-03-26T09:44:03.050Z,53.2119
2024-03-26T09:45:06.857Z,54.0887
2024-03-26T09:46:06.659Z,55.4963
2024-03-26T09:47:09.377Z,55.5857
2024-03-26T09:48:12.096Z,56.8924
2024-03-26T09:49:14.830Z,57.9742
2024-03-26T09:50:17.628Z,55.4130
2024-03-26T09:51:20.571Z,55.3670
2024-03-26T09:52:23.331Z,54.7640
2024-03-26T09:53:26.068Z,53.6229
2024-03-26T09:54:28.996Z,53.6514
2024-03-26T09:55:31.805Z,54.0852
2024-03-26T09:56:34.528Z,53.4245
2024-03-26T09:57:37.274Z,54.5553
2024-03-26T09:58:40.289Z,54.0286
2024-03-26T09:59:43.093Z,56.1656
2024-03-26T10:00:45.834Z,53.0727
2024-03-26T10:01:48.548Z,53.4459
2024-03-26T10:02:51.454Z,53.2090
2024-03-26T10:03:54.509Z,53.6593
2024-03-26T10:04:57.244Z,53.3442
2024-03-26T10:06:00.097Z,53.4750
2024-03-26T10:07:02.982Z,55.8571
2024-03-26T10:08:05.715Z,56.2739
2024-03-26T10:09:08.735Z,56.1590
2024-03-26T10:10:11.488Z,57.5336
2024-03-26T10:11:14.273Z,56.4992
2024-03-26T10:12:17.243Z,58.3792
2024-03-26T10:13:20.003Z,56.9425
2024-03-26T10:14:22.771Z,56.0030
2024-03-26T10:15:25.700Z,54.9284
2024-03-26T10:16:28.426Z,55.0577
2024-03-26T10:17:33.250Z,57.2254
2024-03-26T10:18:32.854Z,55.1284
2024-03-26T10:19:35.608Z,56.8432
2024-03-26T10:20:38.412Z,56.5854
2024-03-26T10:21:41.373Z,55.0803
2024-03-26T10:22:44.108Z,55.6141
2024-03-26T10:23:46.901Z,56.1465
2024-03-26T10:24:49.858Z,54.4955
2024-03-26T10:25:52.572Z,55.4882
2024-03-26T10:26:55.381Z,54.9405
2024-03-26T10:27:58.097Z,54.5672
2024-03-26T10:29:01.082Z,54.8725
2024-03-26T10:30:03.886Z,55.0879
2024-03-26T10:31:06.653Z,55.5589
2024-03-26T10:32:09.629Z,57.2108
2024-03-26T10:33:12.560Z,57.9247
2024-03-26T10:34:15.245Z,57.9754
2024-03-26T10:35:18.021Z,57.2877
2024-03-26T10:36:20.815Z,57.1367
2024-03-26T10:37:23.548Z,57.1632
2024-03-26T10:38:26.487Z,57.5042
2024-03-26T10:39:29.285Z,57.6976
2024-03-26T10:40:32.021Z,58.8201
2024-03-26T10:41:34.935Z,56.8688
2024-03-26T10:42:37.968Z,57.7446
2024-03-26T10:43:40.695Z,56.4083
2024-03-26T10:44:43.704Z,55.9240
2024-03-26T10:45:59.960Z,56.9356
2024-03-26T10:46:49.399Z,55.1323
2024-03-26T10:47:48.938Z,55.9817
2024-03-26T10:48:57.495Z,56.7725
2024-03-26T10:49:53.414Z,57.8424
2024-03-26T10:50:56.625Z,57.5063
2024-03-26T10:51:59.377Z,56.1056
2024-03-26T10:53:02.296Z,57.9973
2024-03-26T10:54:05.103Z,58.7920
2024-03-26T10:55:07.830Z,58.8568
2024-03-26T10:56:10.714Z,57.4054
2024-03-26T10:57:13.478Z,56.8529
2024-03-26T10:58:16.201Z,56.9654
2024-03-26T10:59:18.979Z,56.5293
2024-03-26T11:00:21.946Z,56.3938
2024-03-26T11:01:24.666Z,56.4024
2024-03-26T11:02:27.396Z,56.4029
2024-03-26T11:03:30.106Z,55.8873
2024-03-26T11:04:32.831Z,56.0754
2024-03-26T11:05:35.861Z,53.8079
2024-03-26T11:06:38.606Z,50.2347
2024-03-26T11:07:41.577Z,49.2534
2024-03-26T11:08:44.360Z,49.0021
2024-03-26T11:09:47.115Z,48.1158
2024-03-26T11:10:52.500Z,47.1975
2024-03-26T11:11:52.099Z,48.0788
2024-03-26T11:12:54.890Z,48.2990
2024-03-26T11:13:57.639Z,45.6262
2024-03-26T11:15:00.454Z,47.0758
2024-03-26T11:16:03.799Z,45.6862
2024-03-26T11:17:04.044Z,45.3096
2024-03-26T11:18:06.936Z,45.2886
2024-03-26T11:19:09.727Z,44.3474
2024-03-26T11:20:12.668Z,41.5434
2024-03-26T11:21:15.396Z,41.5462
2024-03-26T11:22:18.459Z,42.5231
2024-03-26T11:23:21.258Z,41.2487
2024-03-26T11:24:23.998Z,41.1720
2024-03-26T11:25:26.788Z,41.5076
2024-03-26T11:26:29.657Z,40.8587
2024-03-26T11:27:32.676Z,39.4612
2024-03-26T11:28:35.391Z,39.4998
2024-03-26T11:29:38.302Z,41.0264
2024-03-26T11:30:41.157Z,42.9506
2024-03-26T11:31:43.956Z,40.5240
2024-03-26T11:32:46.707Z,40.5676
2024-03-26T11:33:49.631Z,42.1753
2024-03-26T11:34:52.459Z,44.0322
2024-03-26T11:35:55.202Z,44.3087
2024-03-26T11:36:58.108Z,42.3991
2024-03-26T11:38:03.485Z,40.6019
2024-03-26T11:39:03.087Z,38.2936
2024-03-26T11:40:06.024Z,38.2932
2024-03-26T11:41:08.984Z,36.7149
2024-03-26T11:42:11.867Z,35.0092
2024-03-26T11:43:14.762Z,34.9121
2024-03-26T11:44:17.554Z,34.5517
2024-03-26T11:45:20.518Z,36.0863
2024-03-26T11:46:23.267Z,38.6715
2024-03-26T11:47:26.101Z,39.3512
2024-03-26T11:48:28.844Z,39.9758
2024-03-26T11:49:31.762Z,41.2417
2024-03-26T11:50:34.536Z,42.2563
2024-03-26T11:51:37.869Z,40.5830
2024-03-26T11:52:38.301Z,39.3722
2024-03-26T11:53:41.310Z,39.7491
2024-03-26T11:54:44.118Z,42.6396
2024-03-26T11:55:47.085Z,43.7166
2024-03-26T11:56:49.848Z,41.1335
2024-03-26T11:57:52.625Z,40.8766
2024-03-26T11:58:55.578Z,40.0661
2024-03-26T11:59:58.326Z,39.3766
2024-03-26T12:01:01.099Z,38.4399
2024-03-26T12:02:03.839Z,40.1728
2024-03-26T12:03:06.796Z,41.6810
2024-03-26T12:04:09.524Z,42.1750
2024-03-26T12:05:12.527Z,41.2929
2024-03-26T12:06:15.245Z,43.1999
2024-03-26T12:07:17.996Z,41.9332
2024-03-26T12:08:20.749Z,39.4439
2024-03-26T12:09:23.545Z,39.3596
2024-03-26T12:10:26.317Z,40.3364
2024-03-26T12:11:29.191Z,39.2575
2024-03-26T12:12:31.879Z,41.6266
2024-03-26T12:13:34.607Z,41.7741
2024-03-26T12:14:37.345Z,39.0909
2024-03-26T12:15:40.374Z,38.1163
2024-03-26T12:16:43.331Z,35.4440
2024-03-26T12:17:46.230Z,34.2373
2024-03-26T12:18:48.969Z,35.0863
2024-03-26T12:19:51.882Z,37.2522
2024-03-26T12:20:54.946Z,36.7241
2024-03-26T12:21:57.693Z,35.6268
2024-03-26T12:23:00.492Z,36.3644
2024-03-26T12:24:03.272Z,35.7990
2024-03-26T12:25:06.166Z,34.5891
2024-03-26T12:26:08.910Z,36.6874
2024-03-26T12:27:11.844Z,41.0396
2024-03-26T12:28:14.649Z,40.7230
2024-03-26T12:29:17.399Z,37.5233
2024-03-26T12:30:20.404Z,36.3277
2024-03-26T12:31:23.325Z,34.4588
2024-03-26T12:32:26.124Z,35.7052
2024-03-26T12:33:28.949Z,34.5123
2024-03-26T12:34:31.871Z,32.8037
2024-03-26T12:35:34.624Z,32.8415
2024-03-26T12:36:37.460Z,32.6788
2024-03-26T12:37:40.390Z,33.1338
2024-03-26T12:38:43.128Z,33.5002